FAKN

Kruger Mpumalanga International Airport

Mpumalanga, South Africa
METAR FAKN 222100Z AUTO 32002KT //// // ////// 18/16 Q1022
Observed Flight Rules
Apr-22 @ 21:00 UTC (56 minutes ago)
Wind
320° at 2 knots
Temperatures Readings
Current 18°C / 64°F
Dewpoint 16°C / 61°F
Humidity 88%
Altimeter 30.18" Hg
Pressure 1022 hPa
Elevation 862
METAR FAKN 222100Z AUTO 32002KT //// // ////// 18/16 Q1022
Observed Flight Rules
Apr-22 @ 21:00 UTC
(56 minutes ago)
Wind
320° at 2 knots
Temperature Dewpoint
18°C / 64°F 16°C / 61°F
Humidity Altimeter Pressure
88% 30.18" Hg 1022 hPa